Ikan Bagat — 3EYX8 — position and weather

sailwx.info

Track history (hours):
 
Tides and Currents Weather Stations Pressure Air Temp Water Temp Dewpoint Dewpoint Depression Visibility Wind Speed Wind Dir Waves Ship Positions

Ikan Bagat

Last reported at 2017-Sep-26 05:21 UTC. Time now 2017-Sep-26 05:59 UTC.
Position N 01°17' E 103°58'.

Length 229 m; draft 12.9 m.

Type: Ship. MMSI: 354375000.

Date/timePositionNaut miles runAvg speedWind from/ knotsBaromVisibWave heightAir tempDewpointWater temp
2017-Sep-26 05:21N 01°17' E 103°58'0 0.2
2017-Sep-26 04:59N 01°17' E 103°58'0 0.2
2017-Sep-26 04:30N 01°17' E 103°58'0 0.0
2017-Sep-26 03:57N 01°17' E 103°58'0 1.1
2017-Sep-26 03:30N 01°17' E 103°57'1 1.3
2017-Sep-26 03:00N 01°16' E 103°57'1 1.2
2017-Sep-26 02:30N 01°16' E 103°57'1 1.6
2017-Sep-26 02:00N 01°15' E 103°58'1 1.5
2017-Sep-26 01:29N 01°15' E 103°59'1 1.1
2017-Sep-26 01:00N 01°15' E 103°59'1 1.4
2017-Sep-26 00:30N 01°15' E 103°58'1 1.0
2017-Sep-25 23:58N 01°14' E 103°57'0 1.0
2017-Sep-25 23:30N 01°14' E 103°57'3 4.6
2017-Sep-25 22:54N 01°17' E 103°58'0 0.0
2017-Sep-25 16:39N 01°17' E 103°58'0 0.0
2017-Sep-25 16:18N 01°17' E 103°58'0 0.2
2017-Sep-25 16:00N 01°17' E 103°58'1 2.8
2017-Sep-25 15:31N 01°16' E 103°57'1 2.3
2017-Sep-25 15:00N 01°14' E 103°58'2 4.8
2017-Sep-25 14:31N 01°14' E 103°56'4 7.9
2017-Sep-25 14:01N 01°12' E 103°52'4 7.8
2017-Sep-25 13:31N 01°10' E 103°48'4 7.7
2017-Sep-25 13:00N 01°08' E 103°45'3 6.4
2017-Sep-25 12:30N 01°06' E 103°43'511.0
2017-Sep-25 12:00N 01°03' E 103°38'611.3
2017-Sep-25 11:31N 01°06' E 103°33'611.6
2017-Sep-25 11:01N 01°09' E 103°28'711.9
2017-Sep-25 10:26N 01°13' E 103°23'  
Track history (hours):
 
Tides and Currents Weather Stations Pressure Air Temp Water Temp Dewpoint Dewpoint Depression Visibility Wind Speed Wind Dir Waves Ship Positions

Ikan Bagat

Last reported at 2017-Sep-26 05:21 UTC. Time now 2017-Sep-26 05:59 UTC.
Position N 01°17' E 103°58'.

Length 229 m; draft 12.9 m.

Type: Ship. MMSI: 354375000.

Date/timePositionNaut miles runAvg speedWind from/ knotsBaromVisibWave heightAir tempDewpointWater temp
2017-Sep-26 05:21N 01°17' E 103°58'0 0.2
2017-Sep-26 04:59N 01°17' E 103°58'0 0.2
2017-Sep-26 04:30N 01°17' E 103°58'0 0.0
2017-Sep-26 03:57N 01°17' E 103°58'0 1.1
2017-Sep-26 03:30N 01°17' E 103°57'1 1.3
2017-Sep-26 03:00N 01°16' E 103°57'1 1.2
2017-Sep-26 02:30N 01°16' E 103°57'1 1.6
2017-Sep-26 02:00N 01°15' E 103°58'1 1.5
2017-Sep-26 01:29N 01°15' E 103°59'1 1.1
2017-Sep-26 01:00N 01°15' E 103°59'1 1.4
2017-Sep-26 00:30N 01°15' E 103°58'1 1.0
2017-Sep-25 23:58N 01°14' E 103°57'0 1.0
2017-Sep-25 23:30N 01°14' E 103°57'3 4.6
2017-Sep-25 22:54N 01°17' E 103°58'0 0.0
2017-Sep-25 16:39N 01°17' E 103°58'0 0.0
2017-Sep-25 16:18N 01°17' E 103°58'0 0.2
2017-Sep-25 16:00N 01°17' E 103°58'1 2.8
2017-Sep-25 15:31N 01°16' E 103°57'1 2.3
2017-Sep-25 15:00N 01°14' E 103°58'2 4.8
2017-Sep-25 14:31N 01°14' E 103°56'4 7.9
2017-Sep-25 14:01N 01°12' E 103°52'4 7.8
2017-Sep-25 13:31N 01°10' E 103°48'4 7.7
2017-Sep-25 13:00N 01°08' E 103°45'3 6.4
2017-Sep-25 12:30N 01°06' E 103°43'511.0
2017-Sep-25 12:00N 01°03' E 103°38'611.3
2017-Sep-25 11:31N 01°06' E 103°33'611.6
2017-Sep-25 11:01N 01°09' E 103°28'711.9
2017-Sep-25 10:26N 01°13' E 103°23'  

Dump ship's entire track history